Time;durP1;ratioP1;P1;durP2;ratioP2;P2;SDS_P1;SDS_P2;PMS_P1;PMS_P2;Temp;Humidity;BMP_temperature;BMP_pressure;BME280_temperature;BME280_humidity;BME280_pressure;Samples;Min_cycle;Max_cycle;Signal;HPM_P1;HPM_P2
2022/06/29 00:00:15;;;;;;;8.75;5.55;;;15.90;99.90;;;;;;6160104;23;20022;-86
2022/06/29 00:02:45;;;;;;;6.63;5.22;;;15.80;99.90;;;;;;6184549;23;20013;-87
2022/06/29 00:05:14;;;;;;;5.70;5.10;;;15.80;99.90;;;;;;6160103;23;20013;-86
2022/06/29 00:07:41;;;;;;;7.20;6.22;;;15.80;99.90;;;;;;6184257;23;20055;-86
2022/06/29 00:10:08;;;;;;;7.32;5.32;;;15.80;99.90;;;;;;6135057;23;20063;-86
2022/06/29 00:12:34;;;;;;;8.02;5.05;;;15.70;99.90;;;;;;6159363;23;20397;-86
2022/06/29 00:15:03;;;;;;;7.68;4.75;;;15.70;99.90;;;;;;6185342;23;20017;-86
2022/06/29 00:17:31;;;;;;;6.28;5.03;;;15.70;99.90;;;;;;6160109;23;20013;-86
2022/06/29 00:20:05;;;;;;;7.53;5.43;;;15.70;99.90;;;;;;6138873;23;20342;-86
2022/06/29 00:22:31;;;;;;;11.65;6.60;;;15.70;99.90;;;;;;6184767;23;20017;-87
2022/06/29 00:24:57;;;;;;;4.80;4.40;;;15.70;99.90;;;;;;6185106;23;20398;-86
2022/06/29 00:27:23;;;;;;;5.90;5.25;;;15.60;99.90;;;;;;6184582;23;20091;-86
2022/06/29 00:29:49;;;;;;;6.25;5.47;;;15.60;99.90;;;;;;6160619;23;20017;-86
2022/06/29 00:32:15;;;;;;;8.77;5.38;;;15.50;99.90;;;;;;6159767;23;20017;-86
2022/06/29 00:34:42;;;;;;;6.78;5.10;;;15.50;99.90;;;;;;6160426;23;20013;-87
2022/06/29 00:37:08;;;;;;;7.18;5.20;;;15.40;99.90;;;;;;6111670;23;20445;-86
2022/06/29 00:39:34;;;;;;;6.18;4.50;;;15.50;99.90;;;;;;6159872;23;20032;-86
2022/06/29 00:42:01;;;;;;;5.90;5.28;;;15.40;99.90;;;;;;6160972;23;20346;-87
2022/06/29 00:44:27;;;;;;;6.20;5.47;;;15.40;99.90;;;;;;6135899;23;20323;-88
2022/06/29 00:46:55;;;;;;;7.47;5.03;;;15.30;99.90;;;;;;6160389;23;20147;-87
2022/06/29 00:49:22;;;;;;;8.10;5.05;;;15.30;99.90;;;;;;6209738;23;20013;-86
2022/06/29 00:51:50;;;;;;;5.45;4.95;;;15.30;99.90;;;;;;6184906;23;20069;-86
2022/06/29 00:54:23;;;;;;;6.55;4.68;;;15.30;99.90;;;;;;6159640;23;20020;-86
2022/06/29 00:56:49;;;;;;;5.50;4.72;;;15.40;99.90;;;;;;6183793;23;20017;-87
2022/06/29 00:59:22;;;;;;;5.40;4.95;;;15.30;99.90;;;;;;6184746;23;20016;-86
2022/06/29 01:01:48;;;;;;;7.80;4.90;;;15.30;99.90;;;;;;6185555;23;20092;-86
2022/06/29 01:04:14;;;;;;;6.32;5.13;;;15.30;99.90;;;;;;6135737;23;20048;-87
2022/06/29 01:06:41;;;;;;;5.95;4.80;;;15.30;99.90;;;;;;6184610;23;20147;-86
2022/06/29 01:09:07;;;;;;;7.47;4.97;;;15.30;99.90;;;;;;6159672;23;20501;-86
2022/06/29 01:11:33;;;;;;;6.60;5.20;;;15.30;99.90;;;;;;6184481;23;20453;-86
2022/06/29 01:14:00;;;;;;;6.25;5.05;;;15.30;99.90;;;;;;6159914;23;20048;-86
2022/06/29 01:16:26;;;;;;;8.38;5.45;;;15.30;99.90;;;;;;6184593;23;20071;-86
2022/06/29 01:18:52;;;;;;;6.45;5.57;;;15.20;99.90;;;;;;6185118;23;20431;-86
2022/06/29 01:21:22;;;;;;;6.00;5.10;;;15.20;99.90;;;;;;6183972;23;20023;-86
2022/06/29 01:23:50;;;;;;;6.93;5.38;;;15.30;99.90;;;;;;6184704;23;20013;-85
2022/06/29 01:26:16;;;;;;;7.75;5.43;;;15.30;99.90;;;;;;6135298;23;20032;-86
2022/06/29 01:28:44;;;;;;;9.10;6.05;;;15.30;99.90;;;;;;6159366;23;20017;-86
2022/06/29 01:31:20;;;;;;;7.32;6.55;;;15.30;99.90;;;;;;6135668;23;20009;-86
2022/06/29 01:33:47;;;;;;;6.63;5.88;;;15.30;99.90;;;;;;6135182;23;20013;-85
2022/06/29 01:36:15;;;;;;;9.77;7.13;;;16.10;99.90;;;;;;6184794;23;20056;-85
2022/06/29 01:38:41;;;;;;;6.72;6.13;;;15.40;99.90;;;;;;6160491;23;20019;-85
2022/06/29 01:41:10;;;;;;;9.52;6.68;;;15.40;99.90;;;;;;6184864;23;20029;-86
2022/06/29 01:43:36;;;;;;;7.97;6.88;;;15.30;99.90;;;;;;6135715;23;20013;-85
2022/06/29 01:46:02;;;;;;;7.72;6.47;;;15.40;99.90;;;;;;6184960;23;20009;-86
2022/06/29 01:48:28;;;;;;;9.13;6.65;;;15.30;99.90;;;;;;6159230;23;20013;-86
2022/06/29 01:50:54;;;;;;;6.93;6.28;;;15.40;99.90;;;;;;6134616;23;20324;-86
2022/06/29 01:53:20;;;;;;;9.80;6.50;;;15.40;99.90;;;;;;6157743;23;20064;-86
2022/06/29 01:55:46;;;;;;;7.03;6.30;;;15.40;99.90;;;;;;6134909;23;20015;-85
2022/06/29 01:58:12;;;;;;;7.57;6.53;;;15.40;99.90;;;;;;6161666;23;20021;-85
2022/06/29 02:00:38;;;;;;;7.88;6.25;;;15.40;99.90;;;;;;6160602;23;20052;-85
2022/06/29 02:03:04;;;;;;;8.07;6.15;;;15.40;99.90;;;;;;6159654;23;20021;-85
2022/06/29 02:05:30;;;;;;;9.70;6.93;;;15.50;99.90;;;;;;6183993;23;20075;-86
2022/06/29 02:07:56;;;;;;;9.57;6.57;;;15.50;99.90;;;;;;6184228;23;20449;-85
2022/06/29 02:10:21;;;;;;;7.30;6.70;;;15.70;99.90;;;;;;6183848;23;20397;-85
2022/06/29 02:12:47;;;;;;;7.82;6.63;;;15.50;99.90;;;;;;6159500;23;20009;-86
2022/06/29 02:15:13;;;;;;;7.68;6.30;;;15.50;99.90;;;;;;6135318;23;20319;-85
2022/06/29 02:17:39;;;;;;;7.85;7.05;;;15.50;99.90;;;;;;6159014;23;20024;-86
2022/06/29 02:20:06;;;;;;;7.63;6.38;;;15.50;99.90;;;;;;6134770;23;20020;-86
2022/06/29 02:22:32;;;;;;;7.35;6.53;;;15.50;99.90;;;;;;6158769;23;20016;-86
2022/06/29 02:24:57;;;;;;;8.18;6.25;;;15.50;99.90;;;;;;6184473;23;20450;-86
2022/06/29 02:27:23;;;;;;;6.38;5.78;;;15.50;99.90;;;;;;6134747;23;20071;-86
2022/06/29 02:29:49;;;;;;;7.57;5.93;;;15.40;99.90;;;;;;6159502;23;20013;-86
2022/06/29 02:34:59;;;;;;;8.07;6.90;;;15.50;99.90;;;;;;6184388;23;20040;-86
2022/06/29 02:37:25;;;;;;;7.18;6.43;;;15.40;99.90;;;;;;6158806;23;20332;-85
2022/06/29 02:39:50;;;;;;;6.85;6.15;;;15.50;99.90;;;;;;6183888;23;20017;-85
2022/06/29 02:42:19;;;;;;;6.65;5.95;;;15.40;99.90;;;;;;6185690;23;20017;-86
2022/06/29 02:44:45;;;;;;;7.25;6.18;;;15.40;99.90;;;;;;6183622;23;20012;-86
2022/06/29 02:47:12;;;;;;;8.10;6.88;;;15.40;99.90;;;;;;6159171;23;20036;-86
2022/06/29 02:49:38;;;;;;;9.93;7.70;;;15.40;99.90;;;;;;6159408;23;20019;-86
2022/06/29 02:52:04;;;;;;;7.55;6.90;;;15.40;99.90;;;;;;6184069;23;20044;-86
2022/06/29 02:54:30;;;;;;;10.27;7.35;;;15.40;99.90;;;;;;6158926;23;20009;-85
2022/06/29 02:56:56;;;;;;;7.75;6.35;;;15.40;99.90;;;;;;6134448;23;20036;-86
2022/06/29 02:59:22;;;;;;;8.50;7.35;;;15.50;99.90;;;;;;6158730;23;20017;-86
2022/06/29 03:01:49;;;;;;;7.40;6.65;;;15.40;99.90;;;;;;6159558;23;20075;-86
2022/06/29 03:04:15;;;;;;;8.75;7.38;;;15.40;99.90;;;;;;6183739;23;20021;-86
2022/06/29 03:06:41;;;;;;;7.90;7.10;;;15.30;99.90;;;;;;6133783;23;20056;-86
2022/06/29 03:09:07;;;;;;;7.70;6.78;;;15.40;99.90;;;;;;6184049;23;20016;-86
2022/06/29 03:11:33;;;;;;;7.47;6.78;;;15.40;99.90;;;;;;6183166;23;20048;-86
2022/06/29 03:14:05;;;;;;;7.43;6.68;;;15.30;99.90;;;;;;6134387;23;20020;-86
2022/06/29 03:16:31;;;;;;;7.82;6.70;;;15.30;99.90;;;;;;6135084;23;20339;-86
2022/06/29 03:18:57;;;;;;;8.35;7.50;;;15.40;99.90;;;;;;6158820;23;20123;-86
2022/06/29 03:21:23;;;;;;;8.02;7.22;;;15.30;99.90;;;;;;6134460;23;20458;-86
2022/06/29 03:23:49;;;;;;;8.32;7.40;;;15.30;99.90;;;;;;6158678;23;20017;-86
2022/06/29 03:26:14;;;;;;;12.93;8.48;;;15.30;99.90;;;;;;6159209;23;20013;-86
2022/06/29 03:28:40;;;;;;;8.55;7.68;;;15.30;99.90;;;;;;6208530;23;20443;-85
2022/06/29 03:31:06;;;;;;;8.32;7.63;;;15.30;99.90;;;;;;6184496;23;20338;-86
2022/06/29 03:33:31;;;;;;;9.90;7.45;;;15.30;99.90;;;;;;6160523;23;20013;-86
2022/06/29 03:35:57;;;;;;;9.02;7.90;;;15.30;99.90;;;;;;6160701;23;20047;-86
2022/06/29 03:38:23;;;;;;;8.05;7.25;;;15.30;99.90;;;;;;6184934;23;20024;-86
2022/06/29 03:40:49;;;;;;;8.32;7.53;;;15.20;99.90;;;;;;6160834;23;20021;-86
2022/06/29 03:43:15;;;;;;;9.30;7.82;;;15.20;99.90;;;;;;6136913;23;20017;-86
2022/06/29 03:45:41;;;;;;;9.65;7.93;;;15.20;99.90;;;;;;6160324;23;20096;-86
2022/06/29 03:48:07;;;;;;;10.50;8.82;;;15.20;99.90;;;;;;6161082;23;20013;-86
2022/06/29 03:50:33;;;;;;;12.13;8.20;;;15.20;99.90;;;;;;6160248;23;20059;-86
2022/06/29 03:53:02;;;;;;;8.88;7.95;;;15.20;99.90;;;;;;6161862;23;20047;-86
2022/06/29 03:55:28;;;;;;;8.88;7.95;;;15.20;99.90;;;;;;6160307;23;20079;-85
2022/06/29 03:57:53;;;;;;;8.73;7.93;;;15.20;99.90;;;;;;6136038;23;20017;-86
2022/06/29 04:00:22;;;;;;;9.63;7.95;;;15.20;99.90;;;;;;6186748;23;20079;-86
2022/06/29 04:02:48;;;;;;;8.70;7.82;;;15.20;99.90;;;;;;6160118;23;20021;-86
2022/06/29 04:05:14;;;;;;;9.43;7.93;;;15.20;99.90;;;;;;6185168;23;20338;-86
2022/06/29 04:07:40;;;;;;;9.80;7.78;;;15.20;99.90;;;;;;6184779;23;20102;-86
2022/06/29 04:10:06;;;;;;;8.20;7.50;;;15.10;99.90;;;;;;6185588;23;20020;-86
2022/06/29 04:12:36;;;;;;;8.73;7.90;;;15.20;99.90;;;;;;6184826;23;20013;-86
2022/06/29 04:15:06;;;;;;;10.27;8.10;;;15.30;99.90;;;;;;6185538;23;20013;-86
2022/06/29 04:17:32;;;;;;;8.77;7.97;;;15.30;99.90;;;;;;6185290;23;20013;-86
2022/06/29 04:19:58;;;;;;;8.73;7.82;;;15.20;99.90;;;;;;6160840;23;20052;-86
2022/06/29 04:22:26;;;;;;;8.93;8.05;;;15.20;99.90;;;;;;6160971;23;20017;-86
2022/06/29 04:24:52;;;;;;;8.55;7.75;;;15.30;99.90;;;;;;6160528;23;20013;-86
2022/06/29 04:27:18;;;;;;;10.77;7.80;;;15.20;99.90;;;;;;6185355;23;20464;-86
2022/06/29 04:29:44;;;;;;;9.07;8.02;;;14.10;99.90;;;;;;6159986;23;20846;-86
2022/06/29 04:32:10;;;;;;;8.70;7.95;;;15.20;99.90;;;;;;6160477;23;20009;-86
2022/06/29 04:34:36;;;;;;;11.68;7.82;;;15.30;99.90;;;;;;6159960;23;20489;-86
2022/06/29 04:37:02;;;;;;;9.35;8.50;;;15.30;99.90;;;;;;6160417;23;20013;-86
2022/06/29 04:39:28;;;;;;;9.98;8.98;;;15.40;99.90;;;;;;6159584;23;20017;-86
2022/06/29 04:41:54;;;;;;;9.52;8.15;;;15.40;99.90;;;;;;6159966;23;20489;-86
2022/06/29 04:44:20;;;;;;;9.32;8.30;;;15.30;99.90;;;;;;6184870;23;20020;-85
2022/06/29 04:46:46;;;;;;;9.10;8.20;;;15.40;99.90;;;;;;6134990;23;20096;-85
2022/06/29 04:49:11;;;;;;;9.82;8.77;;;15.40;99.90;;;;;;6135293;23;20009;-85
2022/06/29 04:51:37;;;;;;;9.60;8.52;;;15.50;99.90;;;;;;6159020;23;20023;-85
2022/06/29 04:54:04;;;;;;;10.75;8.68;;;15.50;99.90;;;;;;6184241;23;20044;-86
2022/06/29 04:56:32;;;;;;;10.25;8.25;;;15.50;99.90;;;;;;6159829;23;20013;-85
2022/06/29 04:58:59;;;;;;;9.57;8.23;;;15.50;99.90;;;;;;6184831;23;20017;-86
2022/06/29 05:01:26;;;;;;;9.05;8.23;;;15.60;99.90;;;;;;6184769;23;20017;-85
2022/06/29 05:03:53;;;;;;;9.48;8.57;;;15.70;99.90;;;;;;6185163;23;20329;-85
2022/06/29 05:06:20;;;;;;;10.00;8.73;;;15.70;99.90;;;;;;6209733;23;20047;-85
2022/06/29 05:08:47;;;;;;;9.45;8.45;;;15.70;99.90;;;;;;6184388;23;20009;-85
2022/06/29 05:11:17;;;;;;;9.82;8.70;;;15.80;99.90;;;;;;6160278;23;20009;-86
2022/06/29 05:13:44;;;;;;;9.07;8.07;;;15.80;99.90;;;;;;6160115;23;20005;-85
2022/06/29 05:16:10;;;;;;;9.82;8.60;;;15.80;99.90;;;;;;6210313;23;20067;-85
2022/06/29 05:18:37;;;;;;;9.40;8.48;;;15.90;99.90;;;;;;6159935;23;20020;-85
2022/06/29 05:21:03;;;;;;;10.55;9.45;;;15.90;99.90;;;;;;6135965;23;20035;-86
2022/06/29 05:23:30;;;;;;;10.55;8.57;;;15.90;99.90;;;;;;6184258;23;20044;-86
2022/06/29 05:25:57;;;;;;;10.48;8.63;;;16.00;99.90;;;;;;6135439;23;20059;-85
2022/06/29 05:28:23;;;;;;;9.55;8.20;;;16.00;99.90;;;;;;6184514;23;20063;-85
2022/06/29 05:30:50;;;;;;;9.05;8.15;;;16.10;99.90;;;;;;6159423;23;20186;-86
2022/06/29 05:33:16;;;;;;;9.82;8.82;;;16.20;99.90;;;;;;6159666;23;20015;-85
2022/06/29 05:35:42;;;;;;;9.02;8.13;;;16.20;99.90;;;;;;6158531;23;20009;-85
2022/06/29 05:38:08;;;;;;;9.73;8.77;;;16.30;99.90;;;;;;6134011;23;20021;-86
2022/06/29 05:40:34;;;;;;;12.90;8.48;;;16.30;99.90;;;;;;6158260;23;20362;-86
2022/06/29 05:43:00;;;;;;;9.52;8.63;;;16.40;99.90;;;;;;6183391;23;20019;-86
2022/06/29 05:45:26;;;;;;;9.27;8.38;;;16.40;99.90;;;;;;6183252;23;20095;-85
2022/06/29 05:47:53;;;;;;;9.82;8.85;;;16.40;99.90;;;;;;6207922;23;20028;-86
2022/06/29 05:50:21;;;;;;;10.00;8.25;;;16.50;99.90;;;;;;6184307;23;20013;-86
2022/06/29 05:52:47;;;;;;;9.48;8.63;;;16.60;99.90;;;;;;6183703;23;20017;-85
2022/06/29 05:55:13;;;;;;;9.23;8.32;;;16.60;99.90;;;;;;6159390;23;20041;-85
2022/06/29 05:57:38;;;;;;;8.93;8.13;;;16.60;99.90;;;;;;6158697;23;20021;-85
2022/06/29 06:00:06;;;;;;;9.02;8.23;;;16.60;99.90;;;;;;6159370;23;20017;-85
2022/06/29 06:02:32;;;;;;;9.60;8.75;;;16.80;99.90;;;;;;6159059;23;20017;-85
2022/06/29 06:04:58;;;;;;;9.60;8.68;;;16.80;99.90;;;;;;6210243;23;20024;-86
2022/06/29 06:07:24;;;;;;;8.23;7.50;;;16.90;99.90;;;;;;6184000;23;20047;-85
2022/06/29 06:09:50;;;;;;;9.82;8.32;;;16.90;99.90;;;;;;6159215;23;21067;-85
2022/06/29 06:12:17;;;;;;;8.98;8.07;;;17.00;99.90;;;;;;6159517;23;20009;-86
2022/06/29 06:14:43;;;;;;;9.27;8.32;;;17.20;99.90;;;;;;6159228;23;20337;-86
2022/06/29 06:17:09;;;;;;;8.48;6.82;;;17.20;99.90;;;;;;6159301;23;20091;-86
2022/06/29 06:19:34;;;;;;;8.48;7.60;;;17.30;99.90;;;;;;6158880;23;20017;-86
2022/06/29 06:22:00;;;;;;;7.68;6.97;;;17.50;99.90;;;;;;6159339;23;20093;-87
2022/06/29 06:24:26;;;;;;;8.30;7.50;;;17.60;99.90;;;;;;6159282;23;20017;-87
2022/06/29 06:26:51;;;;;;;7.65;6.95;;;17.70;99.90;;;;;;6158944;23;20067;-86
2022/06/29 06:29:18;;;;;;;7.47;6.78;;;17.90;99.90;;;;;;6134691;23;20009;-86
2022/06/29 06:31:43;;;;;;;7.80;6.75;;;17.90;99.90;;;;;;6159248;23;20013;-85
2022/06/29 06:34:09;;;;;;;7.47;6.15;;;18.10;99.90;;;;;;6135828;23;20013;-86
2022/06/29 06:36:37;;;;;;;6.93;6.22;;;18.30;99.90;;;;;;6158872;23;20024;-87
2022/06/29 06:39:03;;;;;;;6.80;6.20;;;18.40;99.90;;;;;;6184153;23;20017;-88
2022/06/29 06:41:28;;;;;;;7.85;5.90;;;18.70;99.90;;;;;;6159678;23;20025;-85
2022/06/29 06:43:59;;;;;;;5.22;4.57;;;18.80;99.90;;;;;;6134290;23;20024;-85
2022/06/29 06:46:26;;;;;;;5.05;4.18;;;19.00;99.90;;;;;;6183754;23;20014;-85
2022/06/29 06:48:52;;;;;;;5.32;4.50;;;19.20;99.90;;;;;;6134383;23;20398;-86
2022/06/29 06:51:20;;;;;;;4.75;4.05;;;19.50;99.90;;;;;;6159158;23;20064;-85
2022/06/29 06:53:46;;;;;;;4.32;3.90;;;19.80;99.90;;;;;;6208434;23;20009;-85
2022/06/29 06:56:13;;;;;;;7.35;4.20;;;20.00;99.90;;;;;;6183870;23;20017;-85
2022/06/29 06:58:38;;;;;;;5.10;3.47;;;20.30;99.90;;;;;;6158381;23;20288;-85
2022/06/29 07:01:06;;;;;;;4.15;3.30;;;20.30;99.90;;;;;;6134541;23;20017;-85
2022/06/29 07:03:32;;;;;;;4.13;3.13;;;20.40;99.90;;;;;;6183786;23;20013;-86
2022/06/29 07:06:16;;;;;;;3.55;3.10;;;20.60;99.90;;;;;;6208629;23;20017;-85
2022/06/29 07:08:42;;;;;;;3.80;2.70;;;20.80;99.90;;;;;;6134369;23;20009;-84
2022/06/29 07:11:08;;;;;;;4.53;2.70;;;20.80;99.90;;;;;;6134307;23;20603;-84
2022/06/29 07:13:35;;;;;;;2.90;2.60;;;20.70;99.90;;;;;;6158668;23;20067;-84
2022/06/29 07:16:03;;;;;;;3.55;2.75;;;20.80;99.90;;;;;;6158571;23;20020;-83
2022/06/29 07:18:29;;;;;;;4.03;2.60;;;21.00;99.90;;;;;;6209003;23;20473;-85
2022/06/29 07:20:56;;;;;;;5.07;2.50;;;21.10;99.90;;;;;;6183686;23;20017;-85
2022/06/29 07:23:21;;;;;;;2.65;2.45;;;21.20;99.90;;;;;;6183688;23;20013;-85
2022/06/29 07:25:47;;;;;;;7.03;2.58;;;21.30;99.90;;;;;;6109573;23;20334;-86
2022/06/29 07:28:13;;;;;;;4.45;2.70;;;21.50;99.90;;;;;;6158654;23;20092;-86
2022/06/29 07:30:39;;;;;;;3.20;2.33;;;21.60;99.90;;;;;;6133648;23;20449;-85
2022/06/29 07:33:05;;;;;;;2.30;2.10;;;21.50;99.90;;;;;;6183348;23;20106;-85
2022/06/29 07:35:37;;;;;;;3.00;2.20;;;21.50;99.90;;;;;;6134080;23;20013;-85
2022/06/29 07:38:03;;;;;;;2.88;2.35;;;21.50;99.90;;;;;;6158471;23;20020;-86
2022/06/29 07:40:29;;;;;;;4.00;2.45;;;21.50;99.90;;;;;;6158752;23;20017;-85
2022/06/29 07:42:55;;;;;;;2.42;2.20;;;21.60;99.90;;;;;;6158659;23;20103;-85
2022/06/29 07:45:21;;;;;;;2.53;2.33;;;21.70;99.90;;;;;;6183241;23;20063;-85
2022/06/29 07:47:48;;;;;;;3.25;2.00;;;21.70;99.90;;;;;;6158126;23;20075;-85
2022/06/29 07:50:14;;;;;;;3.80;2.22;;;21.70;99.90;;;;;;6158566;23;20057;-86
2022/06/29 07:52:42;;;;;;;4.13;2.35;;;21.90;99.90;;;;;;6157255;23;20013;-85
2022/06/29 07:55:08;;;;;;;4.20;2.17;;;21.80;99.90;;;;;;6157261;23;20075;-85
2022/06/29 07:57:35;;;;;;;3.35;2.30;;;22.00;99.90;;;;;;6159190;23;20019;-85
2022/06/29 08:00:03;;;;;;;4.63;2.10;;;22.10;99.90;;;;;;6182803;23;20013;-85
2022/06/29 08:02:28;;;;;;;3.40;2.22;;;22.20;99.90;;;;;;6183010;23;20016;-85
2022/06/29 08:04:54;;;;;;;3.47;2.10;;;22.20;99.90;;;;;;6157934;23;20036;-85
2022/06/29 08:07:20;;;;;;;5.63;2.10;;;22.20;99.90;;;;;;6133675;23;20094;-85
2022/06/29 08:09:45;;;;;;;5.50;2.40;;;22.20;99.90;;;;;;6157983;23;20013;-85
2022/06/29 08:12:11;;;;;;;3.40;2.20;;;22.30;99.90;;;;;;6134309;23;20123;-85
2022/06/29 08:14:37;;;;;;;3.42;2.30;;;22.30;99.90;;;;;;6134052;23;20072;-85
2022/06/29 08:17:03;;;;;;;2.50;1.90;;;22.50;99.90;;;;;;6159254;23;20334;-85
2022/06/29 08:19:29;;;;;;;3.15;2.30;;;22.70;99.90;;;;;;6160247;23;20020;-85
2022/06/29 08:21:54;;;;;;;3.85;2.75;;;22.60;99.90;;;;;;6160125;23;20564;-85
2022/06/29 08:24:20;;;;;;;4.63;2.33;;;22.70;99.90;;;;;;6160491;23;20323;-87
2022/06/29 08:26:46;;;;;;;3.55;2.47;;;22.90;99.90;;;;;;6159883;23;20021;-86
2022/06/29 08:29:13;;;;;;;2.65;2.00;;;23.00;99.90;;;;;;6135463;23;20019;-85
2022/06/29 08:31:39;;;;;;;2.25;2.05;;;23.10;99.90;;;;;;6159915;23;20016;-86
2022/06/29 08:34:07;;;;;;;2.35;2.13;;;23.20;99.90;;;;;;6160348;23;20013;-86
2022/06/29 08:36:32;;;;;;;5.18;2.38;;;23.30;99.90;;;;;;6161059;23;20101;-84
2022/06/29 08:39:00;;;;;;;2.95;1.85;;;23.30;99.90;;;;;;6135274;23;20017;-85
2022/06/29 08:41:29;;;;;;;2.70;2.10;;;23.40;99.90;;;;;;6160225;23;20024;-86
2022/06/29 08:43:58;;;;;;;1.92;1.75;;;23.60;99.90;;;;;;6184430;23;20092;-86
2022/06/29 08:46:24;;;;;;;6.45;2.00;;;23.70;99.90;;;;;;6161066;23;20299;-85
2022/06/29 08:48:49;;;;;;;4.28;2.50;;;23.60;99.90;;;;;;6159957;23;20067;-85
2022/06/29 08:51:18;;;;;;;2.72;1.85;;;23.90;99.90;;;;;;6136047;23;20096;-86
2022/06/29 08:53:46;;;;;;;2.05;1.85;;;23.90;99.90;;;;;;6208268;23;20009;-85
2022/06/29 08:56:13;;;;;;;2.08;1.88;;;23.80;99.90;;;;;;6184895;23;20017;-85
2022/06/29 08:58:41;;;;;;;3.65;2.55;;;23.70;99.90;;;;;;6159848;23;20017;-85
2022/06/29 09:01:09;;;;;;;2.80;2.20;;;23.70;99.90;;;;;;6135334;23;20146;-87
2022/06/29 09:03:36;;;;;;;3.10;2.20;;;23.70;99.90;;;;;;6160548;23;20013;-86
2022/06/29 09:06:03;;;;;;;2.45;2.10;;;23.90;99.90;;;;;;6159436;23;20028;-85
2022/06/29 09:08:32;;;;;;;4.25;2.00;;;23.90;99.90;;;;;;6160002;23;20009;-85
2022/06/29 09:11:18;;;;;;;2.53;2.05;;;24.10;99.90;;;;;;6209117;23;20052;-87
2022/06/29 09:13:44;;;;;;;2.72;2.20;;;24.40;99.90;;;;;;6183688;23;20628;-86
2022/06/29 09:16:09;;;;;;;2.85;2.17;;;24.90;99.90;;;;;;6135044;23;20100;-86
2022/06/29 09:18:35;;;;;;;4.07;2.10;;;25.00;99.90;;;;;;6159608;23;20013;-86
2022/06/29 09:21:04;;;;;;;2.53;1.80;;;25.10;99.90;;;;;;6158806;23;20024;-86
2022/06/29 09:23:32;;;;;;;2.35;1.90;;;25.40;99.90;;;;;;6184470;23;20023;-86
2022/06/29 09:25:58;;;;;;;2.58;1.73;;;25.30;99.90;;;;;;6184342;23;20084;-86
2022/06/29 09:28:26;;;;;;;3.50;2.05;;;25.60;99.90;;;;;;6208638;23;20406;-86
2022/06/29 09:30:54;;;;;;;4.28;2.20;;;25.90;99.90;;;;;;6159283;23;20346;-86
2022/06/29 09:33:22;;;;;;;2.00;1.80;;;26.00;99.90;;;;;;6159747;23;20020;-85
2022/06/29 09:36:08;;;;;;;1.77;1.52;;;25.20;99.90;;;;;;6134750;23;20326;-86
2022/06/29 09:38:34;;;;;;;3.17;1.90;;;25.80;99.90;;;;;;6183834;23;20174;-86
2022/06/29 09:41:11;;;;;;;2.83;1.77;;;25.70;99.90;;;;;;6159299;23;20013;-85
2022/06/29 09:43:42;;;;;;;1.83;1.67;;;25.60;99.90;;;;;;6184078;23;20460;-85
2022/06/29 09:46:11;;;;;;;2.80;1.77;;;25.60;99.90;;;;;;6183232;23;20075;-84
2022/06/29 09:48:39;;;;;;;2.17;1.98;;;25.40;99.90;;;;;;6208906;23;20031;-84
2022/06/29 09:53:59;;;;;;;2.65;1.98;;;25.40;99.90;;;;;;6185321;23;20013;-86
2022/06/29 09:56:29;;;;;;;1.73;1.60;;;25.80;99.90;;;;;;6183901;23;20342;-85
2022/06/29 09:58:58;;;;;;;2.20;2.00;;;25.90;99.90;;;;;;6158731;23;20450;-85
2022/06/29 10:04:13;;;;;;;2.78;1.88;;;25.40;99.90;;;;;;6183278;23;20017;-84
2022/06/29 10:06:39;;;;;;;5.43;2.17;;;25.90;99.90;;;;;;6207085;23;20390;-85
2022/06/29 10:09:05;;;;;;;2.17;1.90;;;26.10;99.90;;;;;;6132654;23;20017;-85
2022/06/29 10:14:37;;;;;;;3.63;2.00;;;26.30;75.10;;;;;;6182045;23;20017;-85
2022/06/29 10:17:27;;;;;;;2.78;2.08;;;26.10;96.70;;;;;;6207643;23;20049;-86
2022/06/29 10:20:32;;;;;;;2.08;1.77;;;25.80;59.50;;;;;;6157147;23;20013;-84
2022/06/29 10:22:58;;;;;;;2.97;2.05;;;26.20;70.30;;;;;;6162990;23;20346;-86
2022/06/29 10:25:27;;;;;;;2.30;2.10;;;26.60;55.30;;;;;;6135953;23;20461;-85
2022/06/29 10:28:16;;;;;;;2.72;2.05;;;26.70;36.50;;;;;;6142059;23;20013;-85
2022/06/29 10:30:43;;;;;;;2.15;1.95;;;26.80;17.70;;;;;;6187276;23;20087;-86
2022/06/29 10:33:35;;;;;;;2.72;1.80;;;27.00;18.60;;;;;;6183981;23;20099;-86
2022/06/29 10:36:07;;;;;;;3.67;2.15;;;26.40;37.70;;;;;;6183399;23;20013;-86
2022/06/29 10:38:58;;;;;;;2.45;2.10;;;26.40;59.50;;;;;;6182804;23;20056;-86
2022/06/29 10:44:08;;;;;;;2.33;2.00;;;26.90;76.90;;;;;;6144639;23;20316;-86
2022/06/29 10:46:57;;;;;;;3.47;1.92;;;26.40;68.00;;;;;;6160078;23;20051;-87
2022/06/29 10:49:23;;;;;;;4.40;2.03;;;26.90;65.30;;;;;;6183537;23;20342;-88
2022/06/29 10:51:49;;;;;;;2.17;1.88;;;27.20;55.20;;;;;;6158570;23;20013;-86
2022/06/29 10:54:30;;;;;;;1.83;1.70;;;27.50;40.40;;;;;;6133890;23;20704;-85
2022/06/29 10:56:55;;;;;;;2.20;2.00;;;27.00;1.00;;;;;;6183780;23;20063;-86
2022/06/29 10:59:35;;;;;;;2.08;1.88;;;26.70;17.10;;;;;;6159066;23;20013;-86
2022/06/29 11:02:09;;;;;;;3.05;1.90;;;26.40;20.20;;;;;;6156994;23;20040;-86
2022/06/29 11:04:34;;;;;;;3.20;2.15;;;26.60;13.20;;;;;;6156875;23;20084;-86
2022/06/29 11:12:45;;;;;;;3.35;1.65;;;26.40;15.80;;;;;;6162580;23;20036;-86
2022/06/29 11:17:55;;;;;;;2.63;1.70;;;26.80;3.50;;;;;;6141775;23;20017;-85
2022/06/29 11:20:22;;;;;;;2.35;1.55;;;27.30;1.00;;;;;;6158693;23;20059;-87
2022/06/29 11:22:58;;;;;;;1.90;1.50;;;28.00;1.00;;;;;;6183483;23;20021;-86
2022/06/29 11:25:34;;;;;;;2.10;1.90;;;27.90;1.00;;;;;;6159210;23;20013;-86
2022/06/29 11:28:00;;;;;;;2.22;1.60;;;28.10;1.00;;;;;;6208146;23;20013;-86
2022/06/29 11:30:29;;;;;;;2.83;1.80;;;27.70;1.00;;;;;;6159252;23;20445;-86
2022/06/29 11:32:54;;;;;;;1.98;1.70;;;28.00;1.00;;;;;;6133829;23;20041;-86
2022/06/29 11:35:26;;;;;;;2.10;1.90;;;27.90;1.00;;;;;;6158422;23;20147;-86
2022/06/29 11:37:53;;;;;;;1.92;1.70;;;28.30;1.00;;;;;;6183030;23;20017;-86
2022/06/29 11:40:33;;;;;;;2.78;1.80;;;28.50;1.00;;;;;;6158846;23;20071;-86
2022/06/29 11:43:07;;;;;;;2.58;1.83;;;28.90;1.00;;;;;;6182566;23;20149;-86
2022/06/29 11:45:45;;;;;;;2.20;1.75;;;28.40;1.00;;;;;;6158350;23;20012;-86
2022/06/29 11:48:26;;;;;;;2.13;1.80;;;28.20;1.00;;;;;;6182600;23;20013;-87
2022/06/29 11:51:11;;;;;;;2.03;1.75;;;28.40;1.00;;;;;;6183707;23;20096;-85
2022/06/29 11:53:36;;;;;;;2.50;1.80;;;28.00;1.00;;;;;;6135599;23;20044;-85
2022/06/29 11:56:09;;;;;;;2.75;1.80;;;27.80;1.00;;;;;;6160193;23;20020;-87
2022/06/29 11:58:39;;;;;;;2.28;1.90;;;27.80;1.00;;;;;;6185198;23;20012;-86
2022/06/29 12:01:16;;;;;;;2.47;2.00;;;27.40;1.00;;;;;;6209872;23;20020;-86
2022/06/29 12:03:49;;;;;;;2.95;1.98;;;27.40;1.00;;;;;;6185125;23;20020;-85
2022/06/29 12:06:15;;;;;;;2.20;2.00;;;27.10;1.00;;;;;;6159772;23;20024;-85
2022/06/29 12:08:41;;;;;;;3.08;2.10;;;27.50;1.00;;;;;;6159904;23;20067;-86
2022/06/29 12:11:08;;;;;;;3.55;2.13;;;27.50;1.00;;;;;;6160027;23;20033;-87
2022/06/29 12:13:33;;;;;;;2.22;2.03;;;27.60;1.00;;;;;;6160168;23;20126;-86
2022/06/29 12:15:59;;;;;;;2.50;1.92;;;27.30;1.00;;;;;;6135198;23;20013;-86
2022/06/29 12:18:25;;;;;;;2.83;2.00;;;27.40;1.00;;;;;;6135101;23;20337;-86
2022/06/29 12:20:51;;;;;;;3.20;2.25;;;27.20;1.00;;;;;;6136060;23;20059;-86
2022/06/29 12:23:17;;;;;;;2.40;2.20;;;27.00;1.00;;;;;;6159519;23;20020;-85
2022/06/29 12:25:44;;;;;;;2.50;1.98;;;27.00;1.00;;;;;;6135108;23;20084;-85
2022/06/29 12:28:09;;;;;;;2.28;2.08;;;27.00;1.00;;;;;;6184582;23;20044;-86
2022/06/29 12:30:36;;;;;;;2.80;2.50;;;27.00;1.00;;;;;;6184575;23;20009;-85
2022/06/29 12:33:02;;;;;;;2.58;2.38;;;27.20;1.00;;;;;;6209333;23;20009;-85
2022/06/29 12:35:31;;;;;;;2.78;2.40;;;27.50;1.00;;;;;;6135317;23;20016;-87
2022/06/29 12:37:57;;;;;;;3.05;2.45;;;28.00;1.00;;;;;;6159816;23;20024;-86
2022/06/29 12:40:29;;;;;;;2.88;2.50;;;28.60;1.00;;;;;;6136045;23;20017;-88
2022/06/29 12:42:56;;;;;;;2.25;2.05;;;28.50;1.00;;;;;;6185002;23;20096;-85
2022/06/29 12:45:24;;;;;;;3.70;2.53;;;28.10;1.00;;;;;;6160066;23;20017;-85
2022/06/29 12:47:50;;;;;;;2.50;2.30;;;27.90;1.00;;;;;;6184568;23;20020;-85
2022/06/29 12:50:16;;;;;;;2.85;2.55;;;27.60;1.00;;;;;;6135199;23;20009;-86
2022/06/29 12:52:46;;;;;;;5.55;2.55;;;27.60;1.00;;;;;;6183606;23;20438;-88
2022/06/29 12:55:16;;;;;;;3.28;2.80;;;27.80;1.00;;;;;;6183789;23;20013;-86
2022/06/29 12:57:43;;;;;;;4.07;2.80;;;28.10;1.00;;;;;;6158435;23;20013;-85
2022/06/29 13:00:11;;;;;;;3.63;2.97;;;28.00;1.00;;;;;;6159153;23;20023;-85
2022/06/29 13:02:38;;;;;;;2.65;2.45;;;28.50;1.00;;;;;;6182800;23;20410;-86
2022/06/29 13:05:04;;;;;;;3.35;2.75;;;28.30;1.00;;;;;;6133732;23;20017;-86
2022/06/29 13:07:32;;;;;;;3.85;3.17;;;28.40;1.00;;;;;;6159908;23;20044;-85
2022/06/29 13:09:58;;;;;;;4.03;3.28;;;29.20;1.00;;;;;;6158996;23;20017;-86
2022/06/29 13:12:26;;;;;;;3.65;3.33;;;28.70;4.60;;;;;;6134068;23;20013;-86